sensor_id;sensor_type;location;lat;lon;timestamp;P1;durP1;ratioP1;P2;durP2;ratioP2
13255;SDS011;37913;48.370;10.930;2022-09-03T00:00:01;80.57;;;37.17;;
13255;SDS011;37913;48.370;10.930;2022-09-03T00:02:37;85.47;;;38.05;;
13255;SDS011;37913;48.370;10.930;2022-09-03T00:05:11;84.93;;;37.92;;
13255;SDS011;37913;48.370;10.930;2022-09-03T00:07:44;88.25;;;38.45;;
13255;SDS011;37913;48.370;10.930;2022-09-03T00:10:19;78.25;;;37.08;;
13255;SDS011;37913;48.370;10.930;2022-09-03T00:12:49;85.15;;;38.33;;
13255;SDS011;37913;48.370;10.930;2022-09-03T00:15:20;82.22;;;37.90;;
13255;SDS011;37913;48.370;10.930;2022-09-03T00:17:50;79.93;;;37.33;;
13255;SDS011;37913;48.370;10.930;2022-09-03T00:20:21;89.97;;;39.08;;
13255;SDS011;37913;48.370;10.930;2022-09-03T00:22:54;75.75;;;36.10;;
13255;SDS011;37913;48.370;10.930;2022-09-03T00:25:25;83.70;;;38.70;;
13255;SDS011;37913;48.370;10.930;2022-09-03T00:27:56;81.78;;;37.65;;
13255;SDS011;37913;48.370;10.930;2022-09-03T00:30:24;84.80;;;38.17;;
13255;SDS011;37913;48.370;10.930;2022-09-03T00:32:54;85.47;;;38.80;;
13255;SDS011;37913;48.370;10.930;2022-09-03T00:35:27;85.43;;;37.42;;
13255;SDS011;37913;48.370;10.930;2022-09-03T00:37:57;80.32;;;37.10;;
13255;SDS011;37913;48.370;10.930;2022-09-03T00:40:38;86.05;;;38.28;;
13255;SDS011;37913;48.370;10.930;2022-09-03T00:43:14;81.95;;;37.50;;
13255;SDS011;37913;48.370;10.930;2022-09-03T00:45:51;80.85;;;37.70;;
13255;SDS011;37913;48.370;10.930;2022-09-03T00:48:28;78.18;;;36.78;;
13255;SDS011;37913;48.370;10.930;2022-09-03T00:51:03;88.30;;;38.72;;
13255;SDS011;37913;48.370;10.930;2022-09-03T00:53:39;86.28;;;38.35;;
13255;SDS011;37913;48.370;10.930;2022-09-03T00:56:18;88.35;;;37.88;;
13255;SDS011;37913;48.370;10.930;2022-09-03T00:59:02;76.82;;;39.60;;
13255;SDS011;37913;48.370;10.930;2022-09-03T01:01:35;71.60;;;36.42;;
13255;SDS011;37913;48.370;10.930;2022-09-03T01:04:14;85.85;;;38.33;;
13255;SDS011;37913;48.370;10.930;2022-09-03T01:07:00;84.75;;;38.80;;
13255;SDS011;37913;48.370;10.930;2022-09-03T01:09:35;84.90;;;38.40;;
13255;SDS011;37913;48.370;10.930;2022-09-03T01:12:14;80.95;;;38.28;;
13255;SDS011;37913;48.370;10.930;2022-09-03T01:14:55;98.60;;;40.80;;
13255;SDS011;37913;48.370;10.930;2022-09-03T01:17:34;86.65;;;38.75;;
13255;SDS011;37913;48.370;10.930;2022-09-03T01:23:17;89.38;;;40.50;;
13255;SDS011;37913;48.370;10.930;2022-09-03T01:25:58;86.25;;;39.22;;
13255;SDS011;37913;48.370;10.930;2022-09-03T01:28:40;85.28;;;38.33;;
13255;SDS011;37913;48.370;10.930;2022-09-03T01:31:23;82.90;;;37.38;;
13255;SDS011;37913;48.370;10.930;2022-09-03T01:33:59;83.47;;;37.03;;
13255;SDS011;37913;48.370;10.930;2022-09-03T01:36:36;83.88;;;36.90;;
13255;SDS011;37913;48.370;10.930;2022-09-03T01:39:10;75.05;;;35.75;;
13255;SDS011;37913;48.370;10.930;2022-09-03T01:41:45;82.43;;;36.90;;
13255;SDS011;37913;48.370;10.930;2022-09-03T01:44:41;78.18;;;36.28;;
13255;SDS011;37913;48.370;10.930;2022-09-03T01:47:35;82.82;;;36.97;;
13255;SDS011;37913;48.370;10.930;2022-09-03T01:50:15;79.15;;;36.28;;
13255;SDS011;37913;48.370;10.930;2022-09-03T01:52:51;78.18;;;36.08;;
13255;SDS011;37913;48.370;10.930;2022-09-03T01:55:27;83.75;;;37.38;;
13255;SDS011;37913;48.370;10.930;2022-09-03T01:57:59;90.20;;;38.35;;
13255;SDS011;37913;48.370;10.930;2022-09-03T02:00:33;83.35;;;36.85;;
13255;SDS011;37913;48.370;10.930;2022-09-03T02:03:05;82.15;;;36.70;;
13255;SDS011;37913;48.370;10.930;2022-09-03T02:05:34;72.70;;;35.38;;
13255;SDS011;37913;48.370;10.930;2022-09-03T02:08:02;71.93;;;35.45;;
13255;SDS011;37913;48.370;10.930;2022-09-03T02:10:31;89.10;;;38.38;;
13255;SDS011;37913;48.370;10.930;2022-09-03T02:13:04;83.60;;;37.30;;
13255;SDS011;37913;48.370;10.930;2022-09-03T02:15:37;88.70;;;37.67;;
13255;SDS011;37913;48.370;10.930;2022-09-03T02:18:09;84.07;;;36.97;;
13255;SDS011;37913;48.370;10.930;2022-09-03T02:20:40;72.77;;;34.97;;
13255;SDS011;37913;48.370;10.930;2022-09-03T02:23:07;85.78;;;37.20;;
13255;SDS011;37913;48.370;10.930;2022-09-03T02:25:37;83.72;;;37.17;;
13255;SDS011;37913;48.370;10.930;2022-09-03T02:28:06;244.23;;;83.07;;
13255;SDS011;37913;48.370;10.930;2022-09-03T02:30:34;90.18;;;37.85;;
13255;SDS011;37913;48.370;10.930;2022-09-03T02:33:03;81.07;;;36.85;;
13255;SDS011;37913;48.370;10.930;2022-09-03T02:35:30;84.68;;;37.58;;
13255;SDS011;37913;48.370;10.930;2022-09-03T02:38:07;78.68;;;36.05;;
13255;SDS011;37913;48.370;10.930;2022-09-03T02:40:35;80.07;;;36.03;;
13255;SDS011;37913;48.370;10.930;2022-09-03T02:43:03;80.97;;;36.80;;
13255;SDS011;37913;48.370;10.930;2022-09-03T02:45:33;75.57;;;35.40;;
13255;SDS011;37913;48.370;10.930;2022-09-03T02:48:06;85.47;;;37.17;;
13255;SDS011;37913;48.370;10.930;2022-09-03T02:50:38;88.18;;;37.80;;
13255;SDS011;37913;48.370;10.930;2022-09-03T02:53:06;82.75;;;36.83;;
13255;SDS011;37913;48.370;10.930;2022-09-03T02:55:33;83.82;;;37.53;;
13255;SDS011;37913;48.370;10.930;2022-09-03T02:58:00;87.03;;;37.97;;
13255;SDS011;37913;48.370;10.930;2022-09-03T03:00:27;85.05;;;37.42;;
13255;SDS011;37913;48.370;10.930;2022-09-03T03:02:55;84.78;;;37.40;;
13255;SDS011;37913;48.370;10.930;2022-09-03T03:05:23;84.60;;;37.22;;
13255;SDS011;37913;48.370;10.930;2022-09-03T03:07:56;82.63;;;37.30;;
13255;SDS011;37913;48.370;10.930;2022-09-03T03:10:23;89.20;;;38.17;;
13255;SDS011;37913;48.370;10.930;2022-09-03T03:12:50;82.82;;;36.83;;
13255;SDS011;37913;48.370;10.930;2022-09-03T03:15:17;83.47;;;36.80;;
13255;SDS011;37913;48.370;10.930;2022-09-03T03:17:43;88.45;;;37.83;;
13255;SDS011;37913;48.370;10.930;2022-09-03T03:20:12;78.82;;;36.92;;
13255;SDS011;37913;48.370;10.930;2022-09-03T03:22:39;85.20;;;37.80;;
13255;SDS011;37913;48.370;10.930;2022-09-03T03:25:06;80.97;;;36.83;;
13255;SDS011;37913;48.370;10.930;2022-09-03T03:27:33;83.43;;;37.50;;
13255;SDS011;37913;48.370;10.930;2022-09-03T03:30:07;86.32;;;38.05;;
13255;SDS011;37913;48.370;10.930;2022-09-03T03:32:35;85.40;;;38.33;;
13255;SDS011;37913;48.370;10.930;2022-09-03T03:35:02;82.65;;;38.42;;
13255;SDS011;37913;48.370;10.930;2022-09-03T03:37:32;89.28;;;38.50;;
13255;SDS011;37913;48.370;10.930;2022-09-03T03:39:59;89.50;;;38.47;;
13255;SDS011;37913;48.370;10.930;2022-09-03T03:42:26;85.88;;;38.25;;
13255;SDS011;37913;48.370;10.930;2022-09-03T03:44:53;93.72;;;39.40;;
13255;SDS011;37913;48.370;10.930;2022-09-03T03:47:20;82.25;;;37.60;;
13255;SDS011;37913;48.370;10.930;2022-09-03T03:49:47;82.40;;;37.53;;
13255;SDS011;37913;48.370;10.930;2022-09-03T03:52:14;84.47;;;37.92;;
13255;SDS011;37913;48.370;10.930;2022-09-03T03:54:42;92.55;;;39.10;;
13255;SDS011;37913;48.370;10.930;2022-09-03T03:57:09;85.28;;;38.42;;
13255;SDS011;37913;48.370;10.930;2022-09-03T03:59:36;84.82;;;37.97;;
13255;SDS011;37913;48.370;10.930;2022-09-03T04:02:03;83.28;;;37.15;;
13255;SDS011;37913;48.370;10.930;2022-09-03T04:04:30;81.90;;;36.83;;
13255;SDS011;37913;48.370;10.930;2022-09-03T04:06:57;88.60;;;38.20;;
13255;SDS011;37913;48.370;10.930;2022-09-03T04:09:24;68.82;;;34.80;;
13255;SDS011;37913;48.370;10.930;2022-09-03T04:11:52;84.75;;;37.00;;
13255;SDS011;37913;48.370;10.930;2022-09-03T04:14:21;83.78;;;37.50;;
13255;SDS011;37913;48.370;10.930;2022-09-03T04:16:49;84.28;;;38.20;;
13255;SDS011;37913;48.370;10.930;2022-09-03T04:19:16;82.68;;;37.42;;
13255;SDS011;37913;48.370;10.930;2022-09-03T04:21:43;86.63;;;38.42;;
13255;SDS011;37913;48.370;10.930;2022-09-03T04:24:10;88.18;;;38.88;;
13255;SDS011;37913;48.370;10.930;2022-09-03T04:26:37;82.18;;;37.60;;
13255;SDS011;37913;48.370;10.930;2022-09-03T04:29:07;86.45;;;38.47;;
13255;SDS011;37913;48.370;10.930;2022-09-03T04:31:36;84.88;;;37.47;;
13255;SDS011;37913;48.370;10.930;2022-09-03T04:34:03;90.93;;;39.17;;
13255;SDS011;37913;48.370;10.930;2022-09-03T04:36:31;81.20;;;37.28;;
13255;SDS011;37913;48.370;10.930;2022-09-03T04:38:59;80.43;;;36.85;;
13255;SDS011;37913;48.370;10.930;2022-09-03T04:41:27;79.90;;;36.90;;
13255;SDS011;37913;48.370;10.930;2022-09-03T04:43:55;84.43;;;37.35;;
13255;SDS011;37913;48.370;10.930;2022-09-03T04:46:25;84.88;;;37.67;;
13255;SDS011;37913;48.370;10.930;2022-09-03T04:48:57;82.43;;;37.17;;
13255;SDS011;37913;48.370;10.930;2022-09-03T04:51:24;85.03;;;37.53;;
13255;SDS011;37913;48.370;10.930;2022-09-03T04:53:53;85.68;;;37.65;;
13255;SDS011;37913;48.370;10.930;2022-09-03T04:56:22;85.35;;;38.50;;
13255;SDS011;37913;48.370;10.930;2022-09-03T04:58:53;87.68;;;38.80;;
13255;SDS011;37913;48.370;10.930;2022-09-03T05:01:21;83.18;;;37.72;;
13255;SDS011;37913;48.370;10.930;2022-09-03T05:03:51;86.07;;;38.20;;
13255;SDS011;37913;48.370;10.930;2022-09-03T05:06:18;93.18;;;40.38;;
13255;SDS011;37913;48.370;10.930;2022-09-03T05:08:46;87.05;;;38.53;;
13255;SDS011;37913;48.370;10.930;2022-09-03T05:11:13;82.78;;;38.05;;
13255;SDS011;37913;48.370;10.930;2022-09-03T05:13:41;83.88;;;38.33;;
13255;SDS011;37913;48.370;10.930;2022-09-03T05:16:09;75.35;;;36.97;;
13255;SDS011;37913;48.370;10.930;2022-09-03T05:18:37;92.97;;;39.95;;
13255;SDS011;37913;48.370;10.930;2022-09-03T05:21:08;80.15;;;37.65;;
13255;SDS011;37913;48.370;10.930;2022-09-03T05:23:37;83.63;;;38.15;;
13255;SDS011;37913;48.370;10.930;2022-09-03T05:26:05;81.30;;;37.67;;
13255;SDS011;37913;48.370;10.930;2022-09-03T05:28:34;85.18;;;38.55;;
13255;SDS011;37913;48.370;10.930;2022-09-03T05:31:03;86.78;;;38.95;;
13255;SDS011;37913;48.370;10.930;2022-09-03T05:33:32;83.28;;;38.13;;
13255;SDS011;37913;48.370;10.930;2022-09-03T05:35:59;88.57;;;39.13;;
13255;SDS011;37913;48.370;10.930;2022-09-03T05:38:28;86.25;;;38.70;;
13255;SDS011;37913;48.370;10.930;2022-09-03T05:40:57;84.95;;;39.53;;
13255;SDS011;37913;48.370;10.930;2022-09-03T05:43:24;86.05;;;38.92;;
13255;SDS011;37913;48.370;10.930;2022-09-03T05:45:55;88.78;;;39.30;;
13255;SDS011;37913;48.370;10.930;2022-09-03T05:48:23;83.80;;;38.80;;
13255;SDS011;37913;48.370;10.930;2022-09-03T05:50:57;88.85;;;39.58;;
13255;SDS011;37913;48.370;10.930;2022-09-03T05:53:25;85.95;;;39.05;;
13255;SDS011;37913;48.370;10.930;2022-09-03T05:55:57;98.60;;;41.67;;
13255;SDS011;37913;48.370;10.930;2022-09-03T05:58:29;83.18;;;39.20;;
13255;SDS011;37913;48.370;10.930;2022-09-03T06:00:56;97.55;;;41.22;;
13255;SDS011;37913;48.370;10.930;2022-09-03T06:03:23;107.40;;;41.85;;
13255;SDS011;37913;48.370;10.930;2022-09-03T06:05:51;103.10;;;40.75;;
13255;SDS011;37913;48.370;10.930;2022-09-03T06:08:20;103.28;;;39.80;;
13255;SDS011;37913;48.370;10.930;2022-09-03T06:10:47;135.82;;;41.20;;
13255;SDS011;37913;48.370;10.930;2022-09-03T06:13:15;86.38;;;39.28;;
13255;SDS011;37913;48.370;10.930;2022-09-03T06:15:42;91.32;;;40.67;;
13255;SDS011;37913;48.370;10.930;2022-09-03T06:18:09;84.28;;;39.53;;
13255;SDS011;37913;48.370;10.930;2022-09-03T06:20:36;88.45;;;40.28;;
13255;SDS011;37913;48.370;10.930;2022-09-03T06:23:03;89.47;;;40.78;;
13255;SDS011;37913;48.370;10.930;2022-09-03T06:25:29;90.80;;;40.72;;
13255;SDS011;37913;48.370;10.930;2022-09-03T06:27:57;89.05;;;40.55;;
13255;SDS011;37913;48.370;10.930;2022-09-03T06:30:25;91.07;;;42.63;;
13255;SDS011;37913;48.370;10.930;2022-09-03T06:32:52;85.40;;;42.35;;
13255;SDS011;37913;48.370;10.930;2022-09-03T06:35:19;91.18;;;42.45;;
13255;SDS011;37913;48.370;10.930;2022-09-03T06:37:46;89.03;;;43.00;;
13255;SDS011;37913;48.370;10.930;2022-09-03T06:40:13;86.10;;;42.83;;
13255;SDS011;37913;48.370;10.930;2022-09-03T06:42:53;98.20;;;58.88;;
13255;SDS011;37913;48.370;10.930;2022-09-03T06:45:22;91.50;;;43.25;;
13255;SDS011;37913;48.370;10.930;2022-09-03T06:47:50;99.05;;;45.17;;
13255;SDS011;37913;48.370;10.930;2022-09-03T06:50:17;104.05;;;46.78;;
13255;SDS011;37913;48.370;10.930;2022-09-03T06:52:44;96.32;;;45.70;;
13255;SDS011;37913;48.370;10.930;2022-09-03T06:55:17;96.95;;;45.70;;
13255;SDS011;37913;48.370;10.930;2022-09-03T06:57:44;96.22;;;44.75;;
13255;SDS011;37913;48.370;10.930;2022-09-03T07:00:11;96.82;;;44.28;;
13255;SDS011;37913;48.370;10.930;2022-09-03T07:02:39;94.63;;;44.10;;
13255;SDS011;37913;48.370;10.930;2022-09-03T07:05:08;103.80;;;47.45;;
13255;SDS011;37913;48.370;10.930;2022-09-03T07:07:35;96.13;;;45.17;;
13255;SDS011;37913;48.370;10.930;2022-09-03T07:10:02;92.43;;;44.25;;
13255;SDS011;37913;48.370;10.930;2022-09-03T07:12:30;103.47;;;45.50;;
13255;SDS011;37913;48.370;10.930;2022-09-03T07:14:59;93.15;;;45.65;;
13255;SDS011;37913;48.370;10.930;2022-09-03T07:17:25;101.65;;;47.20;;
13255;SDS011;37913;48.370;10.930;2022-09-03T07:19:52;99.03;;;46.85;;
13255;SDS011;37913;48.370;10.930;2022-09-03T07:22:21;101.97;;;49.08;;
13255;SDS011;37913;48.370;10.930;2022-09-03T07:24:48;111.13;;;51.33;;
13255;SDS011;37913;48.370;10.930;2022-09-03T07:27:16;107.18;;;52.92;;
13255;SDS011;37913;48.370;10.930;2022-09-03T07:29:43;105.80;;;51.83;;
13255;SDS011;37913;48.370;10.930;2022-09-03T07:32:10;105.40;;;48.25;;
13255;SDS011;37913;48.370;10.930;2022-09-03T07:34:36;114.28;;;51.70;;
13255;SDS011;37913;48.370;10.930;2022-09-03T07:37:03;101.47;;;47.30;;
13255;SDS011;37913;48.370;10.930;2022-09-03T07:39:32;111.88;;;51.78;;
13255;SDS011;37913;48.370;10.930;2022-09-03T07:41:59;107.03;;;50.20;;
13255;SDS011;37913;48.370;10.930;2022-09-03T07:44:26;118.43;;;50.72;;
13255;SDS011;37913;48.370;10.930;2022-09-03T07:46:53;99.78;;;48.53;;
13255;SDS011;37913;48.370;10.930;2022-09-03T07:49:20;98.57;;;48.80;;
13255;SDS011;37913;48.370;10.930;2022-09-03T07:51:47;108.65;;;51.72;;
13255;SDS011;37913;48.370;10.930;2022-09-03T07:54:18;84.57;;;45.40;;
13255;SDS011;37913;48.370;10.930;2022-09-03T07:56:47;100.80;;;48.83;;
13255;SDS011;37913;48.370;10.930;2022-09-03T07:59:15;96.55;;;48.53;;
13255;SDS011;37913;48.370;10.930;2022-09-03T08:01:44;102.25;;;49.35;;
13255;SDS011;37913;48.370;10.930;2022-09-03T08:04:11;102.18;;;50.25;;
13255;SDS011;37913;48.370;10.930;2022-09-03T08:06:38;104.80;;;51.17;;
13255;SDS011;37913;48.370;10.930;2022-09-03T08:09:07;98.95;;;51.97;;
13255;SDS011;37913;48.370;10.930;2022-09-03T08:11:36;95.18;;;48.10;;
13255;SDS011;37913;48.370;10.930;2022-09-03T08:14:06;99.25;;;48.28;;
13255;SDS011;37913;48.370;10.930;2022-09-03T08:16:34;96.97;;;49.40;;
13255;SDS011;37913;48.370;10.930;2022-09-03T08:19:03;105.13;;;50.85;;
13255;SDS011;37913;48.370;10.930;2022-09-03T08:21:30;98.13;;;50.60;;
13255;SDS011;37913;48.370;10.930;2022-09-03T08:23:57;90.05;;;47.50;;
13255;SDS011;37913;48.370;10.930;2022-09-03T08:26:27;91.15;;;47.47;;
13255;SDS011;37913;48.370;10.930;2022-09-03T08:28:56;99.57;;;49.33;;
13255;SDS011;37913;48.370;10.930;2022-09-03T08:31:24;86.15;;;46.65;;
13255;SDS011;37913;48.370;10.930;2022-09-03T08:33:53;94.22;;;49.55;;
13255;SDS011;37913;48.370;10.930;2022-09-03T08:36:22;88.70;;;47.33;;
13255;SDS011;37913;48.370;10.930;2022-09-03T08:38:51;86.50;;;45.83;;
13255;SDS011;37913;48.370;10.930;2022-09-03T08:41:21;89.45;;;47.47;;
13255;SDS011;37913;48.370;10.930;2022-09-03T08:43:58;91.93;;;48.55;;
13255;SDS011;37913;48.370;10.930;2022-09-03T08:46:39;84.47;;;47.58;;
13255;SDS011;37913;48.370;10.930;2022-09-03T08:49:12;86.00;;;48.47;;
13255;SDS011;37913;48.370;10.930;2022-09-03T08:51:41;104.43;;;52.80;;
13255;SDS011;37913;48.370;10.930;2022-09-03T08:54:13;81.72;;;48.20;;
13255;SDS011;37913;48.370;10.930;2022-09-03T08:56:41;91.70;;;50.83;;
13255;SDS011;37913;48.370;10.930;2022-09-03T08:59:08;90.82;;;51.85;;
13255;SDS011;37913;48.370;10.930;2022-09-03T09:01:39;102.78;;;55.38;;
13255;SDS011;37913;48.370;10.930;2022-09-03T09:04:17;92.38;;;51.67;;
13255;SDS011;37913;48.370;10.930;2022-09-03T09:06:54;83.88;;;49.47;;
13255;SDS011;37913;48.370;10.930;2022-09-03T09:09:27;89.88;;;50.28;;
13255;SDS011;37913;48.370;10.930;2022-09-03T09:12:03;90.60;;;49.53;;
13255;SDS011;37913;48.370;10.930;2022-09-03T09:14:43;93.80;;;49.25;;
13255;SDS011;37913;48.370;10.930;2022-09-03T09:17:22;103.68;;;52.20;;
13255;SDS011;37913;48.370;10.930;2022-09-03T09:20:01;98.78;;;53.05;;
13255;SDS011;37913;48.370;10.930;2022-09-03T09:22:35;96.25;;;52.50;;
13255;SDS011;37913;48.370;10.930;2022-09-03T09:25:06;100.63;;;54.45;;
13255;SDS011;37913;48.370;10.930;2022-09-03T09:27:39;105.40;;;56.33;;
13255;SDS011;37913;48.370;10.930;2022-09-03T09:30:15;94.40;;;54.60;;
13255;SDS011;37913;48.370;10.930;2022-09-03T09:32:44;89.40;;;53.53;;
13255;SDS011;37913;48.370;10.930;2022-09-03T09:35:12;94.88;;;55.80;;
13255;SDS011;37913;48.370;10.930;2022-09-03T09:37:49;92.50;;;54.00;;
13255;SDS011;37913;48.370;10.930;2022-09-03T09:40:21;100.50;;;55.42;;
13255;SDS011;37913;48.370;10.930;2022-09-03T09:42:50;92.28;;;52.85;;
13255;SDS011;37913;48.370;10.930;2022-09-03T09:45:27;95.63;;;53.30;;
13255;SDS011;37913;48.370;10.930;2022-09-03T09:47:59;91.22;;;51.88;;
13255;SDS011;37913;48.370;10.930;2022-09-03T09:50:28;91.40;;;50.88;;
13255;SDS011;37913;48.370;10.930;2022-09-03T09:53:01;87.43;;;48.92;;
13255;SDS011;37913;48.370;10.930;2022-09-03T09:55:32;95.15;;;49.78;;
13255;SDS011;37913;48.370;10.930;2022-09-03T09:58:05;88.13;;;47.33;;
13255;SDS011;37913;48.370;10.930;2022-09-03T10:00:34;89.85;;;46.85;;
13255;SDS011;37913;48.370;10.930;2022-09-03T10:03:08;129.60;;;56.85;;
13255;SDS011;37913;48.370;10.930;2022-09-03T10:05:37;98.47;;;48.42;;
13255;SDS011;37913;48.370;10.930;2022-09-03T10:08:06;88.15;;;45.30;;
13255;SDS011;37913;48.370;10.930;2022-09-03T10:10:46;85.53;;;44.95;;
13255;SDS011;37913;48.370;10.930;2022-09-03T10:13:16;83.97;;;44.47;;
13255;SDS011;37913;48.370;10.930;2022-09-03T10:15:47;73.57;;;42.55;;
13255;SDS011;37913;48.370;10.930;2022-09-03T10:18:21;84.22;;;45.03;;
13255;SDS011;37913;48.370;10.930;2022-09-03T10:20:57;91.60;;;46.03;;
13255;SDS011;37913;48.370;10.930;2022-09-03T10:23:31;87.22;;;46.22;;
13255;SDS011;37913;48.370;10.930;2022-09-03T10:26:05;91.82;;;46.60;;
13255;SDS011;37913;48.370;10.930;2022-09-03T10:28:36;77.57;;;44.03;;
13255;SDS011;37913;48.370;10.930;2022-09-03T10:31:18;86.55;;;45.83;;
13255;SDS011;37913;48.370;10.930;2022-09-03T10:33:58;90.68;;;46.50;;
13255;SDS011;37913;48.370;10.930;2022-09-03T10:36:30;93.15;;;46.92;;
13255;SDS011;37913;48.370;10.930;2022-09-03T10:39:03;87.65;;;45.83;;
13255;SDS011;37913;48.370;10.930;2022-09-03T10:41:40;92.88;;;49.95;;
13255;SDS011;37913;48.370;10.930;2022-09-03T10:44:31;91.53;;;48.53;;
13255;SDS011;37913;48.370;10.930;2022-09-03T10:47:14;85.88;;;47.17;;
13255;SDS011;37913;48.370;10.930;2022-09-03T10:49:56;87.72;;;46.35;;
13255;SDS011;37913;48.370;10.930;2022-09-03T10:52:30;81.45;;;45.60;;
13255;SDS011;37913;48.370;10.930;2022-09-03T10:55:09;80.05;;;45.63;;
13255;SDS011;37913;48.370;10.930;2022-09-03T10:57:44;79.82;;;45.00;;
13255;SDS011;37913;48.370;10.930;2022-09-03T11:00:16;90.07;;;47.67;;
13255;SDS011;37913;48.370;10.930;2022-09-03T11:05:48;87.10;;;47.83;;
13255;SDS011;37913;48.370;10.930;2022-09-03T11:08:24;98.15;;;50.75;;
13255;SDS011;37913;48.370;10.930;2022-09-03T11:10:56;93.05;;;49.83;;
13255;SDS011;37913;48.370;10.930;2022-09-03T11:13:31;98.70;;;51.22;;
13255;SDS011;37913;48.370;10.930;2022-09-03T11:16:05;103.65;;;52.97;;
13255;SDS011;37913;48.370;10.930;2022-09-03T11:18:37;104.40;;;52.83;;
13255;SDS011;37913;48.370;10.930;2022-09-03T11:21:10;75.63;;;47.08;;
13255;SDS011;37913;48.370;10.930;2022-09-03T11:23:40;86.55;;;50.33;;
13255;SDS011;37913;48.370;10.930;2022-09-03T11:26:10;93.53;;;52.28;;
13255;SDS011;37913;48.370;10.930;2022-09-03T11:28:40;103.22;;;56.65;;
13255;SDS011;37913;48.370;10.930;2022-09-03T11:31:14;92.85;;;58.45;;
13255;SDS011;37913;48.370;10.930;2022-09-03T11:33:46;93.35;;;65.70;;
13255;SDS011;37913;48.370;10.930;2022-09-03T11:36:26;92.70;;;76.70;;
13255;SDS011;37913;48.370;10.930;2022-09-03T11:38:55;100.93;;;85.13;;
13255;SDS011;37913;48.370;10.930;2022-09-03T11:41:24;102.55;;;91.07;;
13255;SDS011;37913;48.370;10.930;2022-09-03T11:43:52;106.35;;;94.97;;
13255;SDS011;37913;48.370;10.930;2022-09-03T11:46:26;108.32;;;97.22;;
13255;SDS011;37913;48.370;10.930;2022-09-03T11:48:55;110.85;;;99.85;;
13255;SDS011;37913;48.370;10.930;2022-09-03T11:51:36;114.63;;;104.07;;
13255;SDS011;37913;48.370;10.930;2022-09-03T11:54:06;114.38;;;103.30;;
13255;SDS011;37913;48.370;10.930;2022-09-03T11:56:50;115.05;;;103.90;;
13255;SDS011;37913;48.370;10.930;2022-09-03T11:59:30;115.05;;;104.10;;
13255;SDS011;37913;48.370;10.930;2022-09-03T12:01:59;117.32;;;106.80;;
13255;SDS011;37913;48.370;10.930;2022-09-03T12:04:31;116.70;;;105.60;;
13255;SDS011;37913;48.370;10.930;2022-09-03T12:07:10;116.72;;;105.65;;
13255;SDS011;37913;48.370;10.930;2022-09-03T12:10:01;119.78;;;108.63;;
13255;SDS011;37913;48.370;10.930;2022-09-03T12:12:50;120.63;;;109.80;;
13255;SDS011;37913;48.370;10.930;2022-09-03T12:15:36;130.02;;;117.47;;
13255;SDS011;37913;48.370;10.930;2022-09-03T12:18:15;127.32;;;116.28;;
13255;SDS011;37913;48.370;10.930;2022-09-03T12:20:58;129.60;;;118.13;;
13255;SDS011;37913;48.370;10.930;2022-09-03T12:23:28;128.18;;;116.80;;
13255;SDS011;37913;48.370;10.930;2022-09-03T12:25:58;127.10;;;115.60;;
13255;SDS011;37913;48.370;10.930;2022-09-03T12:28:29;127.00;;;115.63;;
13255;SDS011;37913;48.370;10.930;2022-09-03T12:31:04;125.82;;;114.57;;
13255;SDS011;37913;48.370;10.930;2022-09-03T12:33:44;119.05;;;107.30;;
13255;SDS011;37913;48.370;10.930;2022-09-03T12:36:12;113.68;;;102.05;;
13255;SDS011;37913;48.370;10.930;2022-09-03T12:38:41;109.85;;;98.13;;
13255;SDS011;37913;48.370;10.930;2022-09-03T12:43:55;103.43;;;92.03;;
13255;SDS011;37913;48.370;10.930;2022-09-03T12:46:25;99.97;;;86.70;;
13255;SDS011;37913;48.370;10.930;2022-09-03T12:48:54;97.05;;;81.93;;
13255;SDS011;37913;48.370;10.930;2022-09-03T12:51:29;96.13;;;78.40;;
13255;SDS011;37913;48.370;10.930;2022-09-03T12:53:58;106.57;;;78.35;;
13255;SDS011;37913;48.370;10.930;2022-09-03T12:56:26;99.22;;;74.97;;
13255;SDS011;37913;48.370;10.930;2022-09-03T12:58:58;110.20;;;75.03;;
13255;SDS011;37913;48.370;10.930;2022-09-03T13:01:30;97.45;;;68.47;;
13255;SDS011;37913;48.370;10.930;2022-09-03T13:04:01;90.65;;;65.72;;
13255;SDS011;37913;48.370;10.930;2022-09-03T13:06:33;97.65;;;64.75;;
13255;SDS011;37913;48.370;10.930;2022-09-03T13:09:10;94.72;;;59.88;;
13255;SDS011;37913;48.370;10.930;2022-09-03T13:11:38;100.57;;;60.28;;
13255;SDS011;37913;48.370;10.930;2022-09-03T13:14:09;93.80;;;57.65;;
13255;SDS011;37913;48.370;10.930;2022-09-03T13:16:44;81.90;;;54.03;;
13255;SDS011;37913;48.370;10.930;2022-09-03T13:19:29;89.20;;;53.30;;
13255;SDS011;37913;48.370;10.930;2022-09-03T13:22:07;98.13;;;55.25;;
13255;SDS011;37913;48.370;10.930;2022-09-03T13:24:49;96.18;;;53.63;;
13255;SDS011;37913;48.370;10.930;2022-09-03T13:27:29;88.00;;;50.15;;
13255;SDS011;37913;48.370;10.930;2022-09-03T13:30:04;92.68;;;50.30;;
13255;SDS011;37913;48.370;10.930;2022-09-03T13:32:36;100.05;;;50.22;;
13255;SDS011;37913;48.370;10.930;2022-09-03T13:35:11;81.00;;;45.15;;
13255;SDS011;37913;48.370;10.930;2022-09-03T13:37:44;85.47;;;44.17;;
13255;SDS011;37913;48.370;10.930;2022-09-03T13:40:17;90.00;;;45.38;;
13255;SDS011;37913;48.370;10.930;2022-09-03T13:42:50;107.57;;;45.05;;
13255;SDS011;37913;48.370;10.930;2022-09-03T13:45:24;92.97;;;44.08;;
13255;SDS011;37913;48.370;10.930;2022-09-03T13:48:01;85.60;;;42.70;;
13255;SDS011;37913;48.370;10.930;2022-09-03T13:50:56;91.53;;;43.75;;
13255;SDS011;37913;48.370;10.930;2022-09-03T13:53:30;87.47;;;42.30;;
13255;SDS011;37913;48.370;10.930;2022-09-03T13:56:13;89.63;;;43.17;;
13255;SDS011;37913;48.370;10.930;2022-09-03T13:58:47;83.25;;;41.65;;
13255;SDS011;37913;48.370;10.930;2022-09-03T14:01:19;87.25;;;43.42;;
13255;SDS011;37913;48.370;10.930;2022-09-03T14:03:51;90.75;;;42.70;;
13255;SDS011;37913;48.370;10.930;2022-09-03T14:06:24;84.63;;;41.90;;
13255;SDS011;37913;48.370;10.930;2022-09-03T14:09:08;90.47;;;43.25;;
13255;SDS011;37913;48.370;10.930;2022-09-03T14:11:48;80.72;;;42.03;;
13255;SDS011;37913;48.370;10.930;2022-09-03T14:14:28;85.70;;;42.45;;
13255;SDS011;37913;48.370;10.930;2022-09-03T14:17:04;82.65;;;42.08;;
13255;SDS011;37913;48.370;10.930;2022-09-03T14:19:41;81.45;;;41.22;;
13255;SDS011;37913;48.370;10.930;2022-09-03T14:22:13;85.65;;;41.47;;
13255;SDS011;37913;48.370;10.930;2022-09-03T14:24:45;88.28;;;42.13;;
13255;SDS011;37913;48.370;10.930;2022-09-03T14:27:23;83.80;;;42.15;;
13255;SDS011;37913;48.370;10.930;2022-09-03T14:29:52;101.30;;;45.50;;
13255;SDS011;37913;48.370;10.930;2022-09-03T14:32:36;84.30;;;41.13;;
13255;SDS011;37913;48.370;10.930;2022-09-03T14:35:18;87.78;;;41.97;;
13255;SDS011;37913;48.370;10.930;2022-09-03T14:38:12;84.22;;;41.50;;
13255;SDS011;37913;48.370;10.930;2022-09-03T14:40:58;90.03;;;42.20;;